createdAt,value
2023-01-05T00:02:02.397Z,8.85
2023-01-05T00:04:47.741Z,8.38
2023-01-05T00:07:14.670Z,8.32
2023-01-05T00:09:41.788Z,8.38
2023-01-05T00:12:34.159Z,8.75
2023-01-05T00:15:45.512Z,8.95
2023-01-05T00:18:32.738Z,8.75
2023-01-05T00:21:21.309Z,8.57
2023-01-05T00:23:49.875Z,8.45
2023-01-05T00:26:20.061Z,7.55
2023-01-05T00:28:47.063Z,8.60
2023-01-05T00:31:15.035Z,8.13
2023-01-05T00:33:42.053Z,8.20
2023-01-05T00:36:10.123Z,8.70
2023-01-05T00:38:37.773Z,8.48
2023-01-05T00:41:06.695Z,8.50
2023-01-05T00:43:33.743Z,8.10
2023-01-05T00:46:00.921Z,10.77
2023-01-05T00:48:27.885Z,7.95
2023-01-05T00:50:54.897Z,7.78
2023-01-05T00:53:21.885Z,8.13
2023-01-05T00:56:15.812Z,8.38
2023-01-05T00:58:42.808Z,8.82
2023-01-05T01:01:13.379Z,8.57
2023-01-05T01:03:40.645Z,8.10
2023-01-05T01:06:08.268Z,8.07
2023-01-05T01:08:35.461Z,8.10
2023-01-05T01:11:07.745Z,7.97
2023-01-05T01:13:35.084Z,7.95
2023-01-05T01:16:07.941Z,7.63
2023-01-05T01:18:36.094Z,7.63
2023-01-05T01:21:03.545Z,7.45
2023-01-05T01:23:30.715Z,7.63
2023-01-05T01:25:57.676Z,7.72
2023-01-05T01:28:24.794Z,7.88
2023-01-05T01:30:51.919Z,7.78
2023-01-05T01:33:19.028Z,8.02
2023-01-05T01:35:46.758Z,8.05
2023-01-05T01:38:13.808Z,7.97
2023-01-05T01:40:43.244Z,8.05
2023-01-05T01:43:40.593Z,8.07
2023-01-05T01:46:07.636Z,7.95
2023-01-05T01:48:36.926Z,8.43
2023-01-05T01:51:10.951Z,9.73
2023-01-05T01:53:42.494Z,8.25
2023-01-05T01:56:13.805Z,8.98
2023-01-05T01:58:41.085Z,8.63
2023-01-05T02:01:08.896Z,9.10
2023-01-05T02:03:36.036Z,8.70
2023-01-05T02:06:03.968Z,8.90
2023-01-05T02:08:33.651Z,9.02
2023-01-05T02:11:13.065Z,9.23
2023-01-05T02:13:39.971Z,9.50
2023-01-05T02:16:14.267Z,9.10
2023-01-05T02:18:58.767Z,8.52
2023-01-05T02:21:44.156Z,8.45
2023-01-05T02:24:20.050Z,8.65
2023-01-05T02:26:58.572Z,8.85
2023-01-05T02:29:59.239Z,9.57
2023-01-05T02:32:29.936Z,9.13
2023-01-05T02:35:09.987Z,9.40
2023-01-05T02:37:48.978Z,9.35
2023-01-05T02:40:22.477Z,10.23
2023-01-05T02:42:53.043Z,9.60
2023-01-05T02:45:23.121Z,10.45
2023-01-05T02:47:54.786Z,10.43
2023-01-05T02:50:32.051Z,9.73
2023-01-05T02:53:06.331Z,10.70
2023-01-05T02:55:40.727Z,10.30
2023-01-05T02:58:17.769Z,10.05
2023-01-05T03:00:50.661Z,9.27
2023-01-05T03:03:27.290Z,9.68
2023-01-05T03:06:01.651Z,9.63
2023-01-05T03:08:33.056Z,10.05
2023-01-05T03:11:24.935Z,10.65
2023-01-05T03:14:16.135Z,10.23
2023-01-05T03:17:02.090Z,9.63
2023-01-05T03:19:37.113Z,10.15
2023-01-05T03:22:29.692Z,10.15
2023-01-05T03:25:17.685Z,9.88
2023-01-05T03:28:06.307Z,10.50
2023-01-05T03:31:04.837Z,9.70
2023-01-05T03:34:03.464Z,10.38
2023-01-05T03:36:39.440Z,9.43
2023-01-05T03:39:12.247Z,10.05
2023-01-05T03:41:39.925Z,9.77
2023-01-05T03:44:08.151Z,9.18
2023-01-05T03:46:39.230Z,8.75
2023-01-05T03:49:09.123Z,9.40
2023-01-05T03:51:41.691Z,8.75
2023-01-05T03:54:10.628Z,9.13
2023-01-05T03:56:38.697Z,10.60
2023-01-05T03:59:06.686Z,9.20
2023-01-05T04:01:35.083Z,8.27
2023-01-05T04:04:03.164Z,9.00
2023-01-05T04:06:30.326Z,8.98
2023-01-05T04:08:58.240Z,9.95
2023-01-05T04:11:26.132Z,8.18
2023-01-05T04:13:58.081Z,8.68
2023-01-05T04:16:25.720Z,8.52
2023-01-05T04:18:55.963Z,9.48
2023-01-05T04:21:24.341Z,8.98
2023-01-05T04:23:54.609Z,9.27
2023-01-05T04:26:21.743Z,8.88
2023-01-05T04:28:50.661Z,8.10
2023-01-05T04:31:20.245Z,7.93
2023-01-05T04:33:48.615Z,7.95
2023-01-05T04:36:19.481Z,8.98
2023-01-05T04:38:46.578Z,8.85
2023-01-05T04:41:13.988Z,8.85
2023-01-05T04:43:45.793Z,7.63
2023-01-05T04:46:14.464Z,8.75
2023-01-05T04:48:44.667Z,7.55
2023-01-05T04:51:12.774Z,8.57
2023-01-05T04:53:39.882Z,8.38
2023-01-05T04:56:10.936Z,8.18
2023-01-05T04:58:43.824Z,8.13
2023-01-05T05:01:29.510Z,8.50
2023-01-05T05:03:58.458Z,7.82
2023-01-05T05:06:26.348Z,7.85
2023-01-05T05:08:55.417Z,7.75
2023-01-05T05:11:24.042Z,7.63
2023-01-05T05:13:51.694Z,7.88
2023-01-05T05:16:18.739Z,7.80
2023-01-05T05:19:04.267Z,7.85
2023-01-05T05:21:31.337Z,8.02
2023-01-05T05:24:17.330Z,7.93
2023-01-05T05:26:46.199Z,7.53
2023-01-05T05:29:13.111Z,7.15
2023-01-05T05:31:58.622Z,8.25
2023-01-05T05:34:25.547Z,8.75
2023-01-05T05:36:52.798Z,8.63
2023-01-05T05:39:20.932Z,8.07
2023-01-05T05:44:51.496Z,7.97
2023-01-05T05:47:20.818Z,8.00
2023-01-05T05:49:47.824Z,10.20
2023-01-05T05:52:14.739Z,8.50
2023-01-05T05:54:41.716Z,8.25
2023-01-05T05:57:08.677Z,8.57
2023-01-05T05:59:35.714Z,8.40
2023-01-05T06:02:02.789Z,8.02
2023-01-05T06:04:30.067Z,7.75
2023-01-05T06:06:57.126Z,7.57
2023-01-05T06:10:01.249Z,8.60
2023-01-05T06:12:29.901Z,8.70
2023-01-05T06:14:56.885Z,7.78
2023-01-05T06:17:26.843Z,8.85
2023-01-05T06:19:53.886Z,9.15
2023-01-05T06:22:20.976Z,8.02
2023-01-05T06:24:48.114Z,8.65
2023-01-05T06:27:18.396Z,9.00
2023-01-05T06:29:49.342Z,8.45
2023-01-05T06:32:16.897Z,8.57
2023-01-05T06:34:50.331Z,8.70
2023-01-05T06:37:17.656Z,8.70
2023-01-05T06:39:46.074Z,8.98
2023-01-05T06:42:33.336Z,9.75
2023-01-05T06:45:00.419Z,8.95
2023-01-05T06:47:28.047Z,9.65
2023-01-05T06:50:01.543Z,8.95
2023-01-05T06:52:29.145Z,8.60
2023-01-05T06:54:56.094Z,8.70
2023-01-05T07:00:13.381Z,9.40
2023-01-05T07:02:40.491Z,10.20
2023-01-05T07:05:08.396Z,10.23
2023-01-05T07:07:36.020Z,10.43
2023-01-05T07:10:03.621Z,9.98
2023-01-05T07:12:30.635Z,9.93
2023-01-05T07:14:57.975Z,11.93
2023-01-05T07:17:26.224Z,9.57
2023-01-05T07:19:53.386Z,10.13
2023-01-05T07:22:20.581Z,9.80
2023-01-05T07:24:47.753Z,9.52
2023-01-05T07:27:14.706Z,8.73
2023-01-05T07:29:41.673Z,9.93
2023-01-05T07:32:08.622Z,9.45
2023-01-05T07:34:35.573Z,9.90
2023-01-05T07:37:02.517Z,9.20
2023-01-05T07:39:48.114Z,8.52
2023-01-05T07:42:15.483Z,9.63
2023-01-05T07:44:43.208Z,9.18
2023-01-05T07:47:10.153Z,9.27
2023-01-05T07:49:37.142Z,9.35
2023-01-05T07:52:04.349Z,9.23
2023-01-05T07:54:31.292Z,8.77
2023-01-05T07:56:58.303Z,9.75
2023-01-05T07:59:25.289Z,9.13
2023-01-05T08:01:52.428Z,8.75
2023-01-05T08:04:19.590Z,9.15
2023-01-05T08:06:46.549Z,9.25
2023-01-05T08:09:32.308Z,9.05
2023-01-05T08:11:59.320Z,8.90
2023-01-05T08:14:26.214Z,8.30
2023-01-05T08:16:53.254Z,9.07
2023-01-05T08:19:20.252Z,8.52
2023-01-05T08:21:47.135Z,9.05
2023-01-05T08:24:14.168Z,8.48
2023-01-05T08:26:41.214Z,9.73
2023-01-05T08:29:08.238Z,9.68
2023-01-05T08:31:37.794Z,8.75
2023-01-05T08:34:05.846Z,8.50
2023-01-05T08:36:33.449Z,8.32
2023-01-05T08:39:03.979Z,7.85
2023-01-05T08:41:35.816Z,7.55
2023-01-05T08:44:05.798Z,8.50
2023-01-05T08:46:34.759Z,8.05
2023-01-05T08:49:06.595Z,7.93
2023-01-05T08:54:21.993Z,6.80
2023-01-05T08:56:50.917Z,7.85
2023-01-05T08:59:17.764Z,8.23
2023-01-05T09:01:44.888Z,7.28
2023-01-05T09:04:11.911Z,8.80
2023-01-05T09:06:38.774Z,7.30
2023-01-05T09:09:24.644Z,7.40
2023-01-05T09:11:52.205Z,7.82
2023-01-05T09:14:19.312Z,8.55
2023-01-05T09:19:52.132Z,7.43
2023-01-05T09:22:19.248Z,7.78
2023-01-05T09:24:46.689Z,7.28
2023-01-05T09:27:13.700Z,7.60
2023-01-05T09:29:40.675Z,6.82
2023-01-05T09:32:07.888Z,7.15
2023-01-05T09:34:34.760Z,7.60
2023-01-05T09:37:01.834Z,6.90
2023-01-05T09:39:29.041Z,6.40
2023-01-05T09:42:00.629Z,7.20
2023-01-05T09:44:37.973Z,7.38
2023-01-05T09:47:19.430Z,7.53
2023-01-05T09:49:49.192Z,6.38
2023-01-05T09:52:18.884Z,7.50
2023-01-05T09:54:46.072Z,6.43
2023-01-05T09:57:27.050Z,7.35
2023-01-05T10:00:03.950Z,6.75
2023-01-05T10:02:51.593Z,5.80
2023-01-05T10:05:20.213Z,6.20
2023-01-05T10:08:04.212Z,6.28
2023-01-05T10:11:09.468Z,5.60
2023-01-05T10:13:43.305Z,5.90
2023-01-05T10:16:17.283Z,5.63
2023-01-05T10:18:45.756Z,5.22
2023-01-05T10:21:31.182Z,5.75
2023-01-05T10:24:13.522Z,5.32
2023-01-05T10:27:25.859Z,5.55
2023-01-05T10:30:21.479Z,4.93
2023-01-05T10:35:59.059Z,4.95
2023-01-05T10:38:24.452Z,5.15
2023-01-05T10:41:27.310Z,5.60
2023-01-05T10:44:12.449Z,5.70
2023-01-05T10:46:47.288Z,5.05
2023-01-05T10:49:28.842Z,5.07
2023-01-05T10:52:01.762Z,5.45
2023-01-05T10:54:45.318Z,4.93
2023-01-05T10:57:35.318Z,5.22
2023-01-05T11:00:09.544Z,5.30
2023-01-05T11:02:52.987Z,4.72
2023-01-05T11:05:42.508Z,5.50
2023-01-05T11:08:27.664Z,5.35
2023-01-05T11:11:01.471Z,5.13
2023-01-05T11:13:33.164Z,5.68
2023-01-05T11:16:13.318Z,5.07
2023-01-05T11:18:51.401Z,4.82
2023-01-05T11:21:23.962Z,5.05
2023-01-05T11:23:52.378Z,5.22
2023-01-05T11:26:21.585Z,5.93
2023-01-05T11:29:02.347Z,5.43
2023-01-05T11:31:35.796Z,5.38
2023-01-05T11:34:25.985Z,4.75
2023-01-05T11:37:05.820Z,5.22
2023-01-05T11:39:48.933Z,5.07
2023-01-05T11:42:25.978Z,4.70
2023-01-05T11:44:53.309Z,5.20
2023-01-05T11:48:05.091Z,4.90
2023-01-05T11:50:47.745Z,4.57
2023-01-05T11:53:40.372Z,5.25
2023-01-05T11:56:19.550Z,4.45
2023-01-05T11:58:48.676Z,5.68
2023-01-05T12:01:38.645Z,5.47
2023-01-05T12:04:26.359Z,4.20
2023-01-05T12:07:02.359Z,3.75
2023-01-05T12:09:34.780Z,3.58
2023-01-05T12:12:30.220Z,4.22
2023-01-05T12:14:59.806Z,3.42
2023-01-05T12:17:47.199Z,3.75
2023-01-05T12:20:25.960Z,3.28
2023-01-05T12:23:05.178Z,3.60
2023-01-05T12:26:16.649Z,3.10
2023-01-05T12:29:34.385Z,3.53
2023-01-05T12:35:23.022Z,3.08
2023-01-05T12:38:10.848Z,3.42
2023-01-05T12:40:47.770Z,3.38
2023-01-05T12:43:35.789Z,3.38
2023-01-05T12:46:13.852Z,3.65
2023-01-05T12:48:48.920Z,3.00
2023-01-05T12:51:34.677Z,3.25
2023-01-05T12:54:04.404Z,3.40
2023-01-05T12:57:00.968Z,2.30
2023-01-05T12:59:35.130Z,2.60
2023-01-05T13:02:07.893Z,3.47
2023-01-05T13:04:48.617Z,2.97
2023-01-05T13:07:45.472Z,3.30
2023-01-05T13:10:24.241Z,2.50
2023-01-05T13:12:57.165Z,6.53
2023-01-05T13:15:41.764Z,6.93
2023-01-05T13:20:46.553Z,7.72
2023-01-05T13:23:28.390Z,10.55
2023-01-05T13:26:04.341Z,8.57
2023-01-05T13:28:33.535Z,7.45
2023-01-05T13:31:10.360Z,7.35
2023-01-05T13:34:19.120Z,8.55
2023-01-05T13:37:10.369Z,8.68
2023-01-05T13:39:52.330Z,8.77
2023-01-05T13:42:19.184Z,8.95
2023-01-05T13:44:57.442Z,11.25
2023-01-05T13:47:57.339Z,8.23
2023-01-05T13:50:52.090Z,8.82
2023-01-05T13:55:55.753Z,6.95
2023-01-05T13:58:39.927Z,7.30
2023-01-05T14:01:13.763Z,7.78
2023-01-05T14:03:52.957Z,6.72
2023-01-05T14:06:28.167Z,6.70
2023-01-05T14:09:00.305Z,6.57
2023-01-05T14:11:46.890Z,6.65
2023-01-05T14:16:59.821Z,6.35
2023-01-05T14:19:32.677Z,7.28
2023-01-05T14:22:05.444Z,7.13
2023-01-05T14:24:47.881Z,6.97
2023-01-05T14:27:19.733Z,6.93
2023-01-05T14:30:05.007Z,7.45
2023-01-05T14:32:31.936Z,7.50
2023-01-05T14:35:06.742Z,8.77
2023-01-05T14:37:41.394Z,7.57
2023-01-05T14:40:23.562Z,5.78
2023-01-05T14:42:51.291Z,5.65
2023-01-05T14:45:34.929Z,5.55
2023-01-05T14:48:05.855Z,5.47
2023-01-05T14:50:39.483Z,4.45
2023-01-05T14:53:35.025Z,4.43
2023-01-05T14:56:01.869Z,4.85
2023-01-05T14:58:37.603Z,5.55
2023-01-05T15:01:34.279Z,5.53
2023-01-05T15:04:29.406Z,5.25
2023-01-05T15:07:33.672Z,5.97
2023-01-05T15:10:12.423Z,5.07
2023-01-05T15:12:45.271Z,4.63
2023-01-05T15:15:49.729Z,4.45
2023-01-05T15:21:10.344Z,4.60
2023-01-05T15:23:43.316Z,4.15
2023-01-05T15:26:39.464Z,4.05
2023-01-05T15:29:27.470Z,3.88
2023-01-05T15:32:10.997Z,3.63
2023-01-05T15:35:22.322Z,3.63
2023-01-05T15:37:52.203Z,3.25
2023-01-05T15:40:37.861Z,3.75
2023-01-05T15:43:04.928Z,3.20
2023-01-05T15:45:43.215Z,3.28
2023-01-05T15:48:15.661Z,3.33
2023-01-05T15:50:48.779Z,3.10
2023-01-05T15:53:30.772Z,3.38
2023-01-05T15:55:58.581Z,5.43
2023-01-05T15:58:28.169Z,3.72
2023-01-05T16:01:10.660Z,4.28
2023-01-05T16:03:39.483Z,3.97
2023-01-05T16:06:16.791Z,4.30
2023-01-05T16:08:46.992Z,3.72
2023-01-05T16:11:26.552Z,4.15
2023-01-05T16:14:16.092Z,4.57
2023-01-05T16:16:54.880Z,4.80
2023-01-05T16:19:46.475Z,5.43
2023-01-05T16:22:16.523Z,6.05
2023-01-05T16:25:20.000Z,5.55
2023-01-05T16:27:50.531Z,5.00
2023-01-05T16:30:28.578Z,5.40
2023-01-05T16:35:55.738Z,6.35
2023-01-05T16:41:01.434Z,6.35
2023-01-05T16:43:35.492Z,5.93
2023-01-05T16:46:25.495Z,7.10
2023-01-05T16:49:20.372Z,6.63
2023-01-05T16:51:47.805Z,6.82
2023-01-05T16:54:35.101Z,6.20
2023-01-05T16:57:05.896Z,5.43
2023-01-05T16:59:32.754Z,6.20
2023-01-05T17:01:59.888Z,5.93
2023-01-05T17:04:26.929Z,5.50
2023-01-05T17:06:54.382Z,6.70
2023-01-05T17:09:43.248Z,6.97
2023-01-05T17:12:12.485Z,5.55
2023-01-05T17:14:41.560Z,6.00
2023-01-05T17:17:12.585Z,6.38
2023-01-05T17:19:40.403Z,6.85
2023-01-05T17:22:10.379Z,6.35
2023-01-05T17:24:57.772Z,6.30
2023-01-05T17:27:24.710Z,6.35
2023-01-05T17:32:26.656Z,6.13
2023-01-05T17:34:53.532Z,5.35
2023-01-05T17:37:20.490Z,5.60
2023-01-05T17:39:47.491Z,5.75
2023-01-05T17:44:59.972Z,6.50
2023-01-05T17:47:26.989Z,6.65
2023-01-05T17:49:54.339Z,6.90
2023-01-05T17:52:28.045Z,6.53
2023-01-05T17:54:55.447Z,7.00
2023-01-05T17:57:22.757Z,7.47
2023-01-05T17:59:50.082Z,7.50
2023-01-05T18:02:16.996Z,6.60
2023-01-05T18:04:43.929Z,7.43
2023-01-05T18:07:11.203Z,7.50
2023-01-05T18:09:38.213Z,7.78
2023-01-05T18:12:05.558Z,7.95
2023-01-05T18:14:32.518Z,7.85
2023-01-05T18:16:59.385Z,6.43
2023-01-05T18:19:26.361Z,7.75
2023-01-05T18:21:53.334Z,7.70
2023-01-05T18:24:20.359Z,6.90
2023-01-05T18:26:53.906Z,6.25
2023-01-05T18:29:22.666Z,7.07
2023-01-05T18:31:49.742Z,7.50
2023-01-05T18:34:16.729Z,7.00
2023-01-05T18:36:43.889Z,7.82
2023-01-05T18:39:14.123Z,6.80
2023-01-05T18:41:41.261Z,7.80
2023-01-05T18:44:08.394Z,7.28
2023-01-05T18:46:35.823Z,8.98
2023-01-05T18:49:03.003Z,7.55
2023-01-05T18:51:29.935Z,7.70
2023-01-05T18:53:57.077Z,8.00
2023-01-05T18:56:24.227Z,7.05
2023-01-05T18:58:53.286Z,7.45
2023-01-05T19:01:21.989Z,7.03
2023-01-05T19:03:55.816Z,5.97
2023-01-05T19:06:25.166Z,6.97
2023-01-05T19:08:52.721Z,7.30
2023-01-05T19:11:25.362Z,5.78
2023-01-05T19:13:55.425Z,5.03
2023-01-05T19:16:24.088Z,4.50
2023-01-05T19:18:54.045Z,7.25
2023-01-05T19:21:22.588Z,5.20
2023-01-05T19:23:54.310Z,5.25
2023-01-05T19:26:21.335Z,5.72
2023-01-05T19:28:57.046Z,6.43
2023-01-05T19:31:25.107Z,6.00
2023-01-05T19:34:12.116Z,5.95
2023-01-05T19:36:39.271Z,5.38
2023-01-05T19:39:08.975Z,5.63
2023-01-05T19:41:46.719Z,5.55
2023-01-05T19:44:19.160Z,5.75
2023-01-05T19:46:49.327Z,5.25
2023-01-05T19:49:27.577Z,5.15
2023-01-05T19:51:55.043Z,5.65
2023-01-05T19:54:22.934Z,5.45
2023-01-05T19:56:49.957Z,5.70
2023-01-05T19:59:19.298Z,6.07
2023-01-05T20:01:46.623Z,5.30
2023-01-05T20:04:14.271Z,4.75
2023-01-05T20:06:48.486Z,5.38
2023-01-05T20:09:19.023Z,5.10
2023-01-05T20:12:15.588Z,4.88
2023-01-05T20:14:43.418Z,5.72
2023-01-05T20:17:12.041Z,5.97
2023-01-05T20:19:39.831Z,5.72
2023-01-05T20:22:14.471Z,5.82
2023-01-05T20:24:42.522Z,5.25
2023-01-05T20:27:13.740Z,4.85
2023-01-05T20:29:41.300Z,5.25
2023-01-05T20:32:12.979Z,5.35
2023-01-05T20:34:40.724Z,5.07
2023-01-05T20:37:27.846Z,5.28
2023-01-05T20:40:00.517Z,5.38
2023-01-05T20:42:46.421Z,5.70
2023-01-05T20:45:15.349Z,7.43
2023-01-05T20:47:47.473Z,5.35
2023-01-05T20:50:16.498Z,5.72
2023-01-05T20:52:43.593Z,6.85
2023-01-05T20:55:10.939Z,6.22
2023-01-05T20:57:38.061Z,6.38
2023-01-05T21:00:07.217Z,7.45
2023-01-05T21:02:52.898Z,6.68
2023-01-05T21:05:20.311Z,6.53
2023-01-05T21:07:48.570Z,6.57
2023-01-05T21:10:16.398Z,6.75
2023-01-05T21:12:43.801Z,6.05
2023-01-05T21:15:13.469Z,5.75
2023-01-05T21:17:40.595Z,5.63
2023-01-05T21:20:08.184Z,5.65
2023-01-05T21:22:35.437Z,5.85
2023-01-05T21:25:03.087Z,5.78
2023-01-05T21:27:30.020Z,6.30
2023-01-05T21:29:57.039Z,5.25
2023-01-05T21:32:24.212Z,5.47
2023-01-05T21:34:51.709Z,5.60
2023-01-05T21:37:37.386Z,5.82
2023-01-05T21:40:04.985Z,5.45
2023-01-05T21:42:40.933Z,5.72
2023-01-05T21:45:10.540Z,6.57
2023-01-05T21:47:38.099Z,6.28
2023-01-05T21:50:25.287Z,6.20
2023-01-05T21:53:13.852Z,5.32
2023-01-05T21:55:59.559Z,6.40
2023-01-05T21:58:26.597Z,5.93
2023-01-05T22:00:59.408Z,6.60
2023-01-05T22:03:28.858Z,5.93
2023-01-05T22:05:58.023Z,5.93
2023-01-05T22:11:00.204Z,6.63
2023-01-05T22:13:29.602Z,6.50
2023-01-05T22:15:56.741Z,6.15
2023-01-05T22:18:26.466Z,5.95
2023-01-05T22:21:01.428Z,6.30
2023-01-05T22:23:30.236Z,6.13
2023-01-05T22:26:03.103Z,6.10
2023-01-05T22:28:30.612Z,5.75
2023-01-05T22:31:06.490Z,5.82
2023-01-05T22:33:37.605Z,5.60
2023-01-05T22:36:07.924Z,6.88
2023-01-05T22:38:37.302Z,5.90
2023-01-05T22:41:06.973Z,6.15
2023-01-05T22:43:37.204Z,6.40
2023-01-05T22:46:08.770Z,6.13
2023-01-05T22:48:40.572Z,6.00
2023-01-05T22:54:06.466Z,6.22
2023-01-05T22:56:34.688Z,6.28
2023-01-05T22:59:12.220Z,5.97
2023-01-05T23:01:47.357Z,5.57
2023-01-05T23:04:15.163Z,6.22
2023-01-05T23:06:42.833Z,6.07
2023-01-05T23:09:13.789Z,6.20
2023-01-05T23:11:46.252Z,5.85
2023-01-05T23:14:15.037Z,5.90
2023-01-05T23:17:00.389Z,6.57
2023-01-05T23:19:30.239Z,5.95
2023-01-05T23:21:57.563Z,6.00
2023-01-05T23:24:24.615Z,6.13
2023-01-05T23:26:51.777Z,6.40
2023-01-05T23:29:18.723Z,6.05
2023-01-05T23:31:46.335Z,6.63
2023-01-05T23:34:15.859Z,5.97
2023-01-05T23:36:42.766Z,6.10
2023-01-05T23:39:09.952Z,5.50
2023-01-05T23:41:37.056Z,5.90
2023-01-05T23:44:04.170Z,6.65
2023-01-05T23:46:31.295Z,5.63
2023-01-05T23:48:58.166Z,6.70
2023-01-05T23:51:25.441Z,6.05
2023-01-05T23:53:55.478Z,5.57
2023-01-05T23:56:31.075Z,5.60
2023-01-05T23:59:05.686Z,5.75
